createdAt,value
2024-02-08T00:00:12.119Z,79.48
2024-02-08T00:03:01.298Z,79.42
2024-02-08T00:05:29.683Z,79.35
2024-02-08T00:08:00.049Z,79.31
2024-02-08T00:10:28.301Z,79.39
2024-02-08T00:12:58.597Z,79.45
2024-02-08T00:15:30.147Z,79.32
2024-02-08T00:17:59.756Z,79.24
2024-02-08T00:20:27.831Z,79.21
2024-02-08T00:22:58.417Z,79.30
2024-02-08T00:25:26.565Z,79.38
2024-02-08T00:27:57.052Z,79.34
2024-02-08T00:30:24.917Z,79.26
2024-02-08T00:32:55.259Z,79.38
2024-02-08T00:35:24.146Z,79.39
2024-02-08T00:37:54.535Z,79.58
2024-02-08T00:40:23.971Z,79.56
2024-02-08T00:42:53.774Z,79.37
2024-02-08T00:45:25.122Z,79.43
2024-02-08T00:47:59.036Z,79.51
2024-02-08T00:50:27.303Z,79.60
2024-02-08T00:52:57.968Z,79.61
2024-02-08T00:55:27.135Z,79.66
2024-02-08T00:57:56.291Z,79.58
2024-02-08T01:00:24.502Z,79.46
2024-02-08T01:02:52.470Z,79.65
2024-02-08T01:05:22.490Z,79.58
2024-02-08T01:07:50.814Z,79.58
2024-02-08T01:10:21.090Z,79.52
2024-02-08T01:12:49.254Z,79.52
2024-02-08T01:15:19.483Z,79.57
2024-02-08T01:17:51.988Z,79.56
2024-02-08T01:20:23.714Z,79.33
2024-02-08T01:22:51.842Z,79.04
2024-02-08T01:25:21.383Z,79.21
2024-02-08T01:27:49.468Z,79.18
2024-02-08T01:30:19.904Z,79.17
2024-02-08T01:32:49.367Z,79.23
2024-02-08T01:35:22.709Z,79.20
2024-02-08T01:37:52.182Z,79.35
2024-02-08T01:40:22.824Z,79.55
2024-02-08T01:42:57.854Z,79.44
2024-02-08T01:45:31.626Z,79.45
2024-02-08T01:48:04.566Z,79.40
2024-02-08T01:50:36.303Z,79.28
2024-02-08T01:53:06.035Z,79.28
2024-02-08T01:55:36.137Z,79.20
2024-02-08T01:58:05.020Z,79.25
2024-02-08T02:00:37.231Z,79.21
2024-02-08T02:03:05.792Z,79.21
2024-02-08T02:05:37.023Z,79.34
2024-02-08T02:08:06.659Z,79.34
2024-02-08T02:10:35.759Z,79.21
2024-02-08T02:13:05.428Z,79.25
2024-02-08T02:15:34.620Z,79.39
2024-02-08T02:18:04.639Z,79.42
2024-02-08T02:20:34.046Z,79.48
2024-02-08T02:23:02.357Z,79.83
2024-02-08T02:25:33.095Z,79.90
2024-02-08T02:28:04.612Z,80.04
2024-02-08T02:30:36.248Z,80.05
2024-02-08T02:33:04.928Z,80.09
2024-02-08T02:35:34.254Z,80.18
2024-02-08T02:38:03.135Z,80.32
2024-02-08T02:40:34.723Z,80.26
2024-02-08T02:43:10.360Z,80.27
2024-02-08T02:45:39.535Z,80.31
2024-02-08T02:48:08.705Z,80.43
2024-02-08T02:50:44.639Z,80.42
2024-02-08T02:53:13.977Z,80.56
2024-02-08T02:55:42.928Z,80.62
2024-02-08T02:58:13.201Z,80.69
2024-02-08T03:00:41.794Z,80.78
2024-02-08T03:03:14.551Z,80.79
2024-02-08T03:05:46.623Z,80.71
2024-02-08T03:08:17.086Z,80.71
2024-02-08T03:10:45.166Z,80.66
2024-02-08T03:13:14.333Z,80.69
2024-02-08T03:15:44.245Z,80.82
2024-02-08T03:18:15.253Z,81.00
2024-02-08T03:20:46.112Z,80.88
2024-02-08T03:23:15.483Z,80.94
2024-02-08T03:25:43.815Z,81.03
2024-02-08T03:28:14.221Z,81.11
2024-02-08T03:30:43.413Z,81.07
2024-02-08T03:33:16.043Z,81.08
2024-02-08T03:35:46.823Z,80.97
2024-02-08T03:38:16.468Z,80.94
2024-02-08T03:40:44.907Z,80.75
2024-02-08T03:43:16.352Z,80.73
2024-02-08T03:45:47.716Z,80.81
2024-02-08T03:48:17.141Z,80.92
2024-02-08T03:50:51.291Z,80.92
2024-02-08T03:53:21.932Z,80.98
2024-02-08T03:55:52.542Z,81.06
2024-02-08T03:58:23.981Z,81.28
2024-02-08T04:00:54.278Z,81.40
2024-02-08T04:03:42.238Z,81.51
2024-02-08T04:06:29.235Z,81.46
2024-02-08T04:09:10.104Z,81.37
2024-02-08T04:11:58.220Z,81.42
2024-02-08T04:14:45.956Z,81.40
2024-02-08T04:17:34.152Z,81.51
2024-02-08T04:20:22.752Z,81.48
2024-02-08T04:23:11.099Z,81.22
2024-02-08T04:25:59.602Z,81.18
2024-02-08T04:28:47.976Z,81.09
2024-02-08T04:31:36.391Z,81.06
2024-02-08T04:34:24.613Z,81.20
2024-02-08T04:37:12.720Z,81.25
2024-02-08T04:40:00.878Z,81.37
2024-02-08T04:43:02.771Z,81.36
2024-02-08T04:45:50.568Z,81.46
2024-02-08T04:48:38.444Z,81.69
2024-02-08T04:51:30.641Z,81.84
2024-02-08T04:54:03.015Z,82.08
2024-02-08T04:56:31.380Z,82.27
2024-02-08T04:59:20.210Z,82.50
2024-02-08T05:01:50.155Z,82.47
2024-02-08T05:04:21.778Z,82.45
2024-02-08T05:06:51.588Z,82.45
2024-02-08T05:09:22.687Z,82.53
2024-02-08T05:11:52.958Z,82.62
2024-02-08T05:14:21.573Z,82.74
2024-02-08T05:16:55.075Z,82.80
2024-02-08T05:19:24.394Z,82.90
2024-02-08T05:22:00.988Z,82.86
2024-02-08T05:24:31.670Z,83.11
2024-02-08T05:26:59.975Z,83.22
2024-02-08T05:29:29.558Z,83.35
2024-02-08T05:31:58.955Z,83.48
2024-02-08T05:34:28.373Z,83.46
2024-02-08T05:36:57.437Z,83.58
2024-02-08T05:39:29.118Z,83.72
2024-02-08T05:41:58.724Z,83.78
2024-02-08T05:44:30.205Z,83.86
2024-02-08T05:46:58.142Z,84.04
2024-02-08T05:49:31.279Z,84.19
2024-02-08T05:52:06.659Z,84.58
2024-02-08T05:54:44.691Z,84.50
2024-02-08T05:57:13.971Z,84.53
2024-02-08T05:59:45.516Z,84.52
2024-02-08T06:02:15.767Z,85.00
2024-02-08T06:04:51.136Z,85.07
2024-02-08T06:07:21.205Z,84.65
2024-02-08T06:09:53.068Z,84.60
2024-02-08T06:12:37.933Z,84.47
2024-02-08T06:15:37.131Z,84.42
2024-02-08T06:18:06.718Z,84.37
2024-02-08T06:20:40.996Z,84.50
2024-02-08T06:23:27.758Z,84.57
2024-02-08T06:26:12.622Z,84.56
2024-02-08T06:28:47.535Z,84.54
2024-02-08T06:31:20.838Z,84.67
2024-02-08T06:34:07.754Z,84.55
2024-02-08T06:37:00.165Z,84.43
2024-02-08T06:39:31.563Z,84.36
2024-02-08T06:42:29.032Z,84.33
2024-02-08T06:45:21.970Z,84.30
2024-02-08T06:48:15.382Z,84.40
2024-02-08T06:51:03.721Z,84.21
2024-02-08T06:53:51.779Z,84.07
2024-02-08T06:56:39.452Z,83.78
2024-02-08T06:59:27.543Z,83.44
2024-02-08T07:02:27.116Z,83.32
2024-02-08T07:05:15.154Z,82.71
2024-02-08T07:08:03.568Z,82.52
2024-02-08T07:10:51.570Z,82.39
2024-02-08T07:13:39.765Z,82.17
2024-02-08T07:16:27.839Z,82.00
2024-02-08T07:19:15.835Z,81.99
2024-02-08T07:22:04.321Z,83.04
2024-02-08T07:24:52.454Z,82.41
2024-02-08T07:27:41.001Z,81.78
2024-02-08T07:30:30.252Z,81.63
2024-02-08T07:33:18.463Z,81.41
2024-02-08T07:36:06.625Z,81.30
2024-02-08T07:38:54.690Z,81.05
2024-02-08T07:41:24.278Z,81.03
2024-02-08T07:43:56.331Z,81.05
2024-02-08T07:46:30.729Z,80.76
2024-02-08T07:49:05.910Z,80.61
2024-02-08T07:51:34.683Z,80.31
2024-02-08T07:54:10.929Z,80.10
2024-02-08T07:56:49.056Z,79.92
2024-02-08T07:59:27.163Z,79.87
2024-02-08T08:01:58.329Z,79.69
2024-02-08T08:04:47.303Z,79.53
2024-02-08T08:07:24.306Z,79.49
2024-02-08T08:10:14.845Z,79.35
2024-02-08T08:12:47.667Z,79.26
2024-02-08T08:15:17.501Z,79.09
2024-02-08T08:18:02.150Z,78.64
2024-02-08T08:20:50.552Z,78.40
2024-02-08T08:23:29.334Z,78.02
2024-02-08T08:26:06.360Z,77.61
2024-02-08T08:28:42.129Z,77.62
2024-02-08T08:31:34.650Z,77.06
2024-02-08T08:34:23.311Z,76.58
2024-02-08T08:37:03.330Z,75.86
2024-02-08T08:39:59.532Z,75.54
2024-02-08T08:42:29.802Z,75.11
2024-02-08T08:45:00.645Z,73.63
2024-02-08T08:47:30.181Z,72.66
2024-02-08T08:49:58.745Z,72.73
2024-02-08T08:52:37.804Z,71.38
2024-02-08T08:55:18.102Z,71.25
2024-02-08T08:58:01.276Z,69.64
2024-02-08T09:00:34.179Z,68.55
2024-02-08T09:03:05.566Z,68.40
2024-02-08T09:05:37.299Z,68.16
2024-02-08T09:08:10.138Z,66.01
2024-02-08T09:10:43.230Z,65.55
2024-02-08T09:13:16.924Z,64.57
2024-02-08T09:15:56.449Z,62.83
2024-02-08T09:19:04.402Z,62.42
2024-02-08T09:21:36.234Z,61.07
2024-02-08T09:24:08.273Z,60.41
2024-02-08T09:26:52.924Z,58.37
2024-02-08T09:29:29.657Z,58.89
2024-02-08T09:32:15.615Z,58.19
2024-02-08T09:34:47.261Z,57.44
2024-02-08T09:37:16.254Z,56.54
2024-02-08T09:39:54.656Z,56.47
2024-02-08T09:42:29.046Z,55.39
2024-02-08T09:45:16.049Z,52.47
2024-02-08T09:47:57.547Z,51.29
2024-02-08T09:50:36.588Z,50.37
2024-02-08T09:53:20.026Z,50.51
2024-02-08T09:55:55.979Z,50.30
2024-02-08T09:58:38.727Z,51.22
2024-02-08T10:01:23.865Z,50.90
2024-02-08T10:04:05.251Z,50.62
2024-02-08T10:06:54.445Z,50.12
2024-02-08T10:09:47.615Z,49.25
2024-02-08T10:12:21.178Z,48.32
2024-02-08T10:14:55.710Z,49.96
2024-02-08T10:17:43.112Z,49.44
2024-02-08T10:20:22.407Z,49.82
2024-02-08T10:22:58.653Z,50.77
2024-02-08T10:25:46.964Z,52.03
2024-02-08T10:28:25.124Z,52.48
2024-02-08T10:31:00.462Z,53.15
2024-02-08T10:33:38.355Z,53.62
2024-02-08T10:36:21.659Z,52.34
2024-02-08T10:38:59.438Z,51.66
2024-02-08T10:41:45.845Z,52.70
2024-02-08T10:44:23.640Z,52.45
2024-02-08T10:46:56.758Z,51.95
2024-02-08T10:49:25.080Z,52.32
2024-02-08T10:52:01.090Z,51.22
2024-02-08T10:54:45.025Z,51.18
2024-02-08T10:57:33.246Z,51.65
2024-02-08T11:00:22.623Z,51.66
2024-02-08T11:03:01.130Z,51.45
2024-02-08T11:05:30.815Z,52.59
2024-02-08T11:07:59.038Z,53.13
2024-02-08T11:10:33.148Z,52.95
2024-02-08T11:13:11.067Z,53.88
2024-02-08T11:15:49.881Z,53.72
2024-02-08T11:18:34.395Z,53.94
2024-02-08T11:21:05.436Z,55.18
2024-02-08T11:23:47.316Z,55.83
2024-02-08T11:26:20.107Z,56.40
2024-02-08T11:28:49.548Z,57.00
2024-02-08T11:31:19.955Z,57.37
2024-02-08T11:33:50.433Z,58.10
2024-02-08T11:36:22.960Z,58.29
2024-02-08T11:39:05.267Z,58.66
2024-02-08T11:41:34.568Z,59.08
2024-02-08T11:44:06.336Z,59.37
2024-02-08T11:46:47.012Z,59.85
2024-02-08T11:49:33.871Z,60.40
2024-02-08T11:52:11.820Z,61.03
2024-02-08T11:54:41.198Z,61.42
2024-02-08T11:57:16.153Z,61.72
2024-02-08T11:59:47.473Z,62.15
2024-02-08T12:02:17.396Z,62.74
2024-02-08T12:04:50.691Z,63.44
2024-02-08T12:07:21.074Z,63.66
2024-02-08T12:10:00.705Z,63.92
2024-02-08T12:12:31.032Z,64.19
2024-02-08T12:14:58.951Z,64.60
2024-02-08T12:17:29.601Z,64.93
2024-02-08T12:20:01.008Z,65.13
2024-02-08T12:22:30.855Z,65.17
2024-02-08T12:25:03.239Z,65.52
2024-02-08T12:27:32.651Z,65.80
2024-02-08T12:30:02.224Z,65.98
2024-02-08T12:32:32.637Z,66.10
2024-02-08T12:35:15.693Z,66.17
2024-02-08T12:37:46.919Z,66.23
2024-02-08T12:40:16.546Z,66.13
2024-02-08T12:42:49.207Z,66.31
2024-02-08T12:45:18.294Z,66.37
2024-02-08T12:47:50.521Z,66.40
2024-02-08T12:50:25.785Z,66.15
2024-02-08T12:52:57.276Z,66.32
2024-02-08T12:55:29.971Z,66.61
2024-02-08T12:58:02.652Z,67.02
2024-02-08T13:00:34.173Z,67.04
2024-02-08T13:03:07.009Z,67.10
2024-02-08T13:05:36.520Z,67.39
2024-02-08T13:08:09.330Z,67.44
2024-02-08T13:10:39.976Z,67.39
2024-02-08T13:13:11.288Z,67.45
2024-02-08T13:15:42.352Z,67.62
2024-02-08T13:18:14.066Z,67.80
2024-02-08T13:20:44.801Z,67.87
2024-02-08T13:23:14.964Z,67.66
2024-02-08T13:25:43.689Z,67.72
2024-02-08T13:28:14.014Z,67.79
2024-02-08T13:30:46.340Z,67.88
2024-02-08T13:33:16.043Z,68.03
2024-02-08T13:35:44.873Z,68.18
2024-02-08T13:38:15.971Z,68.46
2024-02-08T13:40:44.431Z,68.74
2024-02-08T13:43:14.986Z,69.12
2024-02-08T13:45:43.705Z,69.29
2024-02-08T13:48:16.874Z,69.79
2024-02-08T13:50:45.658Z,70.80
2024-02-08T13:53:15.259Z,70.62
2024-02-08T13:56:04.122Z,70.55
2024-02-08T13:58:37.408Z,70.74
2024-02-08T14:01:06.219Z,71.03
2024-02-08T14:03:36.112Z,71.47
2024-02-08T14:06:09.852Z,71.59
2024-02-08T14:08:43.827Z,72.07
2024-02-08T14:11:17.011Z,72.41
2024-02-08T14:13:50.780Z,72.68
2024-02-08T14:16:21.906Z,73.11
2024-02-08T14:18:53.563Z,73.22
2024-02-08T14:21:25.781Z,73.42
2024-02-08T14:24:00.465Z,73.73
2024-02-08T14:26:43.841Z,73.91
2024-02-08T14:29:13.857Z,74.36
2024-02-08T14:31:42.382Z,74.47
2024-02-08T14:34:13.107Z,74.85
2024-02-08T14:36:46.996Z,74.91
2024-02-08T14:39:30.889Z,75.12
2024-02-08T14:42:12.074Z,75.33
2024-02-08T14:44:45.204Z,75.51
2024-02-08T14:47:31.916Z,75.77
2024-02-08T14:50:10.763Z,75.81
2024-02-08T14:52:44.910Z,75.94
2024-02-08T14:55:23.081Z,76.19
2024-02-08T14:57:59.556Z,76.62
2024-02-08T15:00:32.150Z,76.55
2024-02-08T15:03:08.788Z,76.86
2024-02-08T15:05:48.823Z,77.11
2024-02-08T15:08:24.783Z,77.53
2024-02-08T15:11:04.083Z,77.90
2024-02-08T15:13:48.296Z,78.17
2024-02-08T15:16:22.654Z,78.25
2024-02-08T15:18:54.459Z,78.40
2024-02-08T15:21:35.620Z,78.74
2024-02-08T15:24:08.484Z,79.00
2024-02-08T15:26:45.369Z,78.92
2024-02-08T15:29:33.715Z,79.13
2024-02-08T15:32:11.202Z,79.51
2024-02-08T15:34:47.889Z,79.61
2024-02-08T15:37:28.983Z,79.71
2024-02-08T15:40:12.106Z,79.98
2024-02-08T15:42:42.844Z,80.44
2024-02-08T15:45:12.190Z,80.53
2024-02-08T15:48:04.828Z,80.70
2024-02-08T15:50:42.865Z,80.85
2024-02-08T15:53:18.655Z,81.03
2024-02-08T15:55:50.245Z,81.58
2024-02-08T15:58:19.915Z,81.77
2024-02-08T16:01:08.402Z,81.98
2024-02-08T16:03:46.014Z,82.23
2024-02-08T16:06:34.434Z,82.38
2024-02-08T16:09:08.554Z,82.46
2024-02-08T16:11:36.683Z,82.81
2024-02-08T16:14:17.734Z,82.83
2024-02-08T16:17:07.202Z,83.06
2024-02-08T16:19:52.455Z,83.22
2024-02-08T16:22:25.199Z,83.45
2024-02-08T16:24:53.805Z,83.71
2024-02-08T16:27:28.830Z,83.88
2024-02-08T16:30:08.777Z,84.26
2024-02-08T16:32:55.337Z,84.27
2024-02-08T16:35:42.275Z,84.54
2024-02-08T16:38:17.532Z,84.64
2024-02-08T16:40:53.125Z,84.90
2024-02-08T16:43:33.712Z,85.07
2024-02-08T16:46:12.572Z,85.36
2024-02-08T16:48:47.959Z,85.60
2024-02-08T16:51:18.825Z,85.81
2024-02-08T16:54:02.471Z,85.95
2024-02-08T16:56:40.212Z,85.93
2024-02-08T16:59:15.882Z,86.10
2024-02-08T17:02:06.446Z,86.22
2024-02-08T17:05:02.562Z,86.41
2024-02-08T17:07:44.286Z,86.55
2024-02-08T17:10:44.859Z,86.73
2024-02-08T17:13:16.988Z,87.02
2024-02-08T17:16:01.243Z,87.14
2024-02-08T17:18:46.703Z,87.36
2024-02-08T17:21:37.760Z,87.65
2024-02-08T17:24:24.023Z,87.71
2024-02-08T17:27:20.454Z,87.80
2024-02-08T17:29:52.101Z,88.28
2024-02-08T17:32:26.271Z,88.37
2024-02-08T17:34:59.620Z,88.43
2024-02-08T17:37:31.224Z,88.50
2024-02-08T17:40:17.266Z,88.41
2024-02-08T17:42:47.117Z,88.65
2024-02-08T17:45:17.003Z,88.72
2024-02-08T17:47:47.108Z,88.72
2024-02-08T17:50:30.840Z,88.72
2024-02-08T17:53:04.341Z,88.81
2024-02-08T17:55:36.897Z,88.72
2024-02-08T17:58:13.143Z,88.79
2024-02-08T18:00:42.895Z,88.99
2024-02-08T18:03:16.213Z,88.98
2024-02-08T18:05:48.739Z,88.95
2024-02-08T18:08:20.214Z,89.10
2024-02-08T18:10:51.372Z,89.14
2024-02-08T18:13:22.009Z,89.19
2024-02-08T18:15:54.439Z,89.04
2024-02-08T18:18:23.774Z,89.20
2024-02-08T18:20:53.378Z,89.21
2024-02-08T18:23:26.052Z,89.17
2024-02-08T18:25:56.751Z,89.28
2024-02-08T18:28:26.197Z,89.23
2024-02-08T18:30:58.329Z,89.22
2024-02-08T18:33:27.852Z,89.26
2024-02-08T18:35:59.648Z,89.29
2024-02-08T18:38:28.300Z,89.30
2024-02-08T18:41:02.107Z,89.46
2024-02-08T18:43:31.656Z,89.44
2024-02-08T18:46:06.616Z,89.63
2024-02-08T18:48:41.334Z,89.73
2024-02-08T18:51:15.580Z,89.73
2024-02-08T18:53:45.686Z,89.88
2024-02-08T18:56:18.995Z,89.92
2024-02-08T18:58:52.394Z,89.97
2024-02-08T19:01:21.865Z,89.91
2024-02-08T19:03:50.306Z,89.82
2024-02-08T19:06:21.142Z,89.77
2024-02-08T19:08:53.280Z,89.83
2024-02-08T19:11:23.405Z,89.73
2024-02-08T19:13:52.706Z,89.77
2024-02-08T19:16:28.531Z,89.75
2024-02-08T19:19:03.234Z,89.76
2024-02-08T19:21:38.307Z,89.85
2024-02-08T19:24:08.039Z,89.93
2024-02-08T19:26:38.440Z,90.07
2024-02-08T19:29:07.107Z,90.15
2024-02-08T19:31:42.077Z,90.13
2024-02-08T19:34:18.192Z,90.28
2024-02-08T19:36:54.715Z,90.38
2024-02-08T19:39:44.592Z,90.48
2024-02-08T19:42:34.170Z,90.67
2024-02-08T19:45:18.045Z,90.82
2024-02-08T19:47:49.978Z,91.00
2024-02-08T19:50:22.389Z,91.23
2024-02-08T19:52:53.193Z,91.17
2024-02-08T19:55:30.852Z,91.29
2024-02-08T19:58:00.939Z,91.37
2024-02-08T20:00:29.689Z,91.52
2024-02-08T20:03:09.556Z,91.58
2024-02-08T20:05:40.591Z,91.59
2024-02-08T20:08:10.769Z,91.60
2024-02-08T20:10:40.407Z,91.58
2024-02-08T20:13:25.129Z,91.59
2024-02-08T20:15:54.691Z,91.46
2024-02-08T20:18:22.788Z,91.60
2024-02-08T20:20:53.925Z,91.62
2024-02-08T20:23:32.773Z,91.72
2024-02-08T20:26:02.396Z,91.78
2024-02-08T20:28:32.142Z,91.83
2024-02-08T20:31:06.544Z,91.72
2024-02-08T20:33:36.167Z,91.88
2024-02-08T20:36:09.308Z,91.94
2024-02-08T20:38:38.161Z,91.85
2024-02-08T20:41:08.117Z,91.99
2024-02-08T20:43:37.908Z,92.00
2024-02-08T20:46:07.249Z,92.05
2024-02-08T20:48:35.479Z,92.07
2024-02-08T20:51:07.970Z,91.97
2024-02-08T20:53:36.049Z,92.17
2024-02-08T20:56:07.082Z,92.25
2024-02-08T20:58:41.118Z,92.23
2024-02-08T21:01:11.484Z,92.25
2024-02-08T21:03:40.287Z,92.31
2024-02-08T21:06:09.979Z,92.35
2024-02-08T21:08:39.017Z,92.35
2024-02-08T21:11:08.317Z,92.24
2024-02-08T21:13:36.589Z,92.24
2024-02-08T21:16:07.164Z,92.43
2024-02-08T21:18:38.061Z,92.28
2024-02-08T21:21:07.564Z,92.22
2024-02-08T21:23:36.042Z,92.05
2024-02-08T21:26:09.842Z,92.11
2024-02-08T21:28:38.741Z,91.93
2024-02-08T21:31:08.283Z,91.98
2024-02-08T21:33:38.815Z,91.95
2024-02-08T21:36:08.282Z,91.99
2024-02-08T21:38:36.410Z,91.89
2024-02-08T21:41:06.063Z,91.82
2024-02-08T21:43:35.607Z,91.90
2024-02-08T21:46:06.035Z,91.94
2024-02-08T21:48:38.267Z,91.91
2024-02-08T21:51:12.677Z,91.97
2024-02-08T21:53:43.105Z,91.87
2024-02-08T21:56:15.161Z,91.97
2024-02-08T21:58:44.626Z,91.59
2024-02-08T22:04:04.426Z,91.28
2024-02-08T22:06:33.432Z,91.40
2024-02-08T22:09:09.821Z,91.60
2024-02-08T22:11:47.204Z,91.69
2024-02-08T22:14:16.746Z,91.59
2024-02-08T22:16:44.933Z,91.45
2024-02-08T22:19:15.485Z,91.50
2024-02-08T22:21:45.858Z,91.52
2024-02-08T22:24:15.754Z,91.52
2024-02-08T22:26:47.561Z,91.50
2024-02-08T22:29:17.259Z,91.57
2024-02-08T22:31:52.701Z,91.60
2024-02-08T22:34:22.102Z,91.52
2024-02-08T22:36:50.346Z,91.57
2024-02-08T22:39:23.853Z,91.65
2024-02-08T22:41:53.347Z,91.63
2024-02-08T22:44:22.859Z,91.67
2024-02-08T22:46:53.635Z,91.67
2024-02-08T22:49:25.088Z,91.58
2024-02-08T22:51:53.350Z,91.71
2024-02-08T22:54:24.282Z,91.68
2024-02-08T22:56:52.782Z,91.77
2024-02-08T22:59:22.432Z,91.78
2024-02-08T23:01:54.064Z,91.89
2024-02-08T23:04:24.162Z,91.94
2024-02-08T23:06:52.701Z,91.96
2024-02-08T23:09:22.309Z,91.89
2024-02-08T23:11:50.829Z,91.87
2024-02-08T23:14:22.028Z,92.08
2024-02-08T23:16:51.739Z,92.12
2024-02-08T23:19:21.470Z,92.18
2024-02-08T23:21:53.637Z,92.21
2024-02-08T23:24:26.279Z,92.17
2024-02-08T23:26:54.593Z,92.18
2024-02-08T23:29:25.473Z,92.22
2024-02-08T23:31:53.578Z,92.28
2024-02-08T23:34:24.682Z,92.19
2024-02-08T23:36:55.419Z,92.14
2024-02-08T23:39:28.032Z,92.00
2024-02-08T23:41:58.959Z,92.00
2024-02-08T23:44:30.002Z,91.89
2024-02-08T23:46:59.004Z,91.86
2024-02-08T23:49:29.301Z,91.68
2024-02-08T23:51:59.604Z,91.59
2024-02-08T23:54:29.598Z,91.52
2024-02-08T23:56:58.241Z,91.53
2024-02-08T23:59:29.369Z,91.54
